Terminal Aerodrome Forecast
Issued by NWS Des Moines, IA

Home | Current Version | Previous Version | Text Only | Print | Product List | Glossary On
Versions: 1 2 3 4 5 6 7 8 9 10 11 12 13 14 15 16 17 18 19 20 21 22 23 24 25 26 27 28 29 30 31 32 33 34 35 36 37 38 39 40
000
FTUS43 KDMX 230532
TAFALO
TAF
KALO 230532Z 2306/2406 32013G22KT P6SM BKN008
     FM231100 36009G15KT P6SM OVC010
     FM231700 06013KT P6SM SCT018 BKN035
     FM232200 07011G19KT P6SM VCSH OVC020
     FM240200 07018G27KT 1 1/2SM RA OVC007=

USA.gov is the U.S. government's official web portal to all federal, state and local government web resources and services.